createdAt,value
2023-04-30T00:04:38.587Z,83.61
2023-04-30T00:10:58.613Z,84.36
2023-04-30T00:17:21.627Z,84.18
2023-04-30T00:23:41.637Z,84.43
2023-04-30T00:30:04.676Z,84.53
2023-04-30T00:36:24.662Z,84.29
2023-04-30T00:42:47.562Z,84.52
2023-04-30T00:49:07.616Z,84.85
2023-04-30T00:55:30.592Z,85.04
2023-04-30T01:01:50.580Z,84.59
2023-04-30T01:08:13.649Z,84.53
2023-04-30T01:14:33.686Z,85.35
2023-04-30T01:20:56.574Z,84.94
2023-04-30T01:27:16.579Z,85.27
2023-04-30T01:33:39.614Z,85.6
2023-04-30T01:39:59.608Z,85.41
2023-04-30T01:46:22.666Z,84.86
2023-04-30T01:52:42.653Z,84.58
2023-04-30T01:59:05.611Z,84.22
2023-04-30T02:05:25.582Z,84.4
2023-04-30T02:11:48.872Z,85.42
2023-04-30T02:18:08.619Z,85.75
2023-04-30T02:24:31.578Z,87.23
2023-04-30T02:30:51.611Z,87.49
2023-04-30T02:37:14.665Z,86.78
2023-04-30T02:43:34.574Z,86.41
2023-04-30T02:49:57.678Z,85.68
2023-04-30T02:56:17.601Z,85.37
2023-04-30T03:02:40.652Z,84.68
2023-04-30T03:09:00.599Z,85.14
2023-04-30T03:15:23.585Z,85.37
2023-04-30T03:31:13.501Z,84.66
2023-04-30T03:37:33.555Z,84.99
2023-04-30T03:43:56.613Z,85.34
2023-04-30T03:50:16.670Z,85.34
2023-04-30T03:56:39.606Z,87.11
2023-04-30T04:02:59.650Z,87.72
2023-04-30T04:09:22.650Z,87.32
2023-04-30T04:15:42.891Z,87.43
2023-04-30T04:22:05.598Z,87.51
2023-04-30T04:28:25.625Z,87.72
2023-04-30T04:34:48.637Z,88
2023-04-30T04:41:08.604Z,87.77
2023-04-30T04:47:31.676Z,88.49
2023-04-30T04:53:51.572Z,88.17
2023-04-30T05:00:14.647Z,87.49
2023-04-30T05:06:34.648Z,87.04
2023-04-30T05:12:57.610Z,86.57
2023-04-30T05:19:17.622Z,86.48
2023-04-30T05:25:40.643Z,86.58
2023-04-30T05:32:00.667Z,86.99
2023-04-30T05:38:23.624Z,87.85
2023-04-30T05:44:43.844Z,87.53
2023-04-30T05:51:06.644Z,87.43
2023-04-30T05:57:26.592Z,87.23
2023-04-30T06:03:49.615Z,86.87
2023-04-30T06:10:09.616Z,86.59
2023-04-30T06:16:32.628Z,86.45
2023-04-30T06:22:52.652Z,86.44
2023-04-30T06:29:15.615Z,85.75
2023-04-30T06:35:35.598Z,86.5
2023-04-30T06:41:58.671Z,86.81
2023-04-30T06:48:18.600Z,86.48
2023-04-30T06:54:41.603Z,86.28
2023-04-30T07:01:01.621Z,85.52
2023-04-30T07:07:24.615Z,85.59
2023-04-30T07:13:44.573Z,84.76
2023-04-30T07:20:07.633Z,84.16
2023-04-30T07:26:27.629Z,83.29
2023-04-30T07:32:50.683Z,82.84
2023-04-30T07:39:11.649Z,80.95
2023-04-30T07:45:34.580Z,79.22
2023-04-30T07:51:54.593Z,78.57
2023-04-30T07:58:17.666Z,75.75
2023-04-30T08:04:37.575Z,75.19
2023-04-30T08:11:00.589Z,74.57
2023-04-30T08:17:20.675Z,71.45
2023-04-30T08:23:43.601Z,71.94
2023-04-30T08:30:03.581Z,71.13
2023-04-30T08:46:31.747Z,65.36
2023-04-30T08:52:51.575Z,64.18
2023-04-30T08:59:14.582Z,61.63
2023-04-30T09:05:34.593Z,59.1
2023-04-30T09:11:57.578Z,58.79
2023-04-30T09:18:17.931Z,57.61
2023-04-30T09:24:40.819Z,54.49
2023-04-30T09:31:00.592Z,53.17
2023-04-30T09:37:23.668Z,51.8
2023-04-30T09:43:43.583Z,51.63
2023-04-30T09:50:06.584Z,50.31
2023-04-30T09:56:26.577Z,44.05
2023-04-30T10:02:49.626Z,46.88
2023-04-30T10:09:09.581Z,42.78
2023-04-30T10:15:32.575Z,45.19
2023-04-30T10:21:52.612Z,42.83
2023-04-30T10:28:15.579Z,43.88
2023-04-30T10:34:35.603Z,41.85
2023-04-30T10:40:58.671Z,45.32
2023-04-30T10:47:18.575Z,43.35
2023-04-30T10:53:41.584Z,45.55
2023-04-30T11:00:01.594Z,42.12
2023-04-30T11:06:24.605Z,40.05
2023-04-30T11:12:44.592Z,44.32
2023-04-30T11:19:08.574Z,40.48
2023-04-30T11:25:27.618Z,38.99
2023-04-30T11:31:50.583Z,39.03
2023-04-30T11:38:10.705Z,37.92
2023-04-30T11:44:33.566Z,39.97
2023-04-30T11:50:53.572Z,39.74
2023-04-30T11:57:16.597Z,39.24
2023-04-30T12:03:36.638Z,37.25
2023-04-30T12:09:59.591Z,38.08
2023-04-30T12:16:19.606Z,35.67
2023-04-30T12:22:42.575Z,34.51
2023-04-30T12:29:02.590Z,36.8
2023-04-30T12:35:25.601Z,38.03
2023-04-30T12:41:45.586Z,36.08
2023-04-30T12:48:08.677Z,33.51
2023-04-30T12:54:28.706Z,33.69
2023-04-30T13:00:51.610Z,35.19
2023-04-30T13:07:11.575Z,36.91
2023-04-30T13:13:34.608Z,38.43
2023-04-30T13:19:54.837Z,32.94
2023-04-30T13:26:17.572Z,34.15
2023-04-30T13:32:37.622Z,33.92
2023-04-30T13:39:00.569Z,34.98
2023-04-30T13:45:20.594Z,35.57
2023-04-30T13:51:43.611Z,34.23
2023-04-30T13:58:03.581Z,37.78
2023-04-30T14:04:26.588Z,36.95
2023-04-30T14:10:46.595Z,36.19
2023-04-30T14:17:09.596Z,33.97
2023-04-30T14:33:53.586Z,32.88
2023-04-30T14:40:16.586Z,33.43
2023-04-30T14:46:36.677Z,35.43
2023-04-30T14:52:59.692Z,33.51
2023-04-30T14:59:19.565Z,32.91
2023-04-30T15:05:42.580Z,34.26
2023-04-30T15:12:02.591Z,33.22
2023-04-30T15:18:25.633Z,34.46
2023-04-30T15:24:45.567Z,36.75
2023-04-30T15:31:08.624Z,37.66
2023-04-30T15:37:28.606Z,38.1
2023-04-30T15:43:51.580Z,36.58
2023-04-30T15:50:11.676Z,36.53
2023-04-30T15:56:34.576Z,34.51
2023-04-30T16:02:54.726Z,36.17
2023-04-30T16:09:17.593Z,37.98
2023-04-30T16:15:37.623Z,38.01
2023-04-30T16:22:00.663Z,37.65
2023-04-30T16:28:20.609Z,38.18
2023-04-30T16:34:43.600Z,38.2
2023-04-30T16:41:03.636Z,38.3
2023-04-30T16:47:26.909Z,39.73
2023-04-30T16:53:46.862Z,38.2
2023-04-30T17:00:09.567Z,39.37
2023-04-30T17:06:29.632Z,40.43
2023-04-30T17:12:52.573Z,41.48
2023-04-30T17:19:12.688Z,41.51
2023-04-30T17:25:35.616Z,41.76
2023-04-30T17:31:55.799Z,40.45
2023-04-30T17:38:18.579Z,41.24
2023-04-30T17:44:38.605Z,41.24
2023-04-30T17:51:01.586Z,41.8
2023-04-30T17:57:21.573Z,42.64
2023-04-30T18:03:44.726Z,42.71
2023-04-30T18:10:04.614Z,43.98
2023-04-30T18:16:27.602Z,45.54
2023-04-30T18:22:47.708Z,46.5
2023-04-30T18:29:10.599Z,48.35
2023-04-30T18:35:30.568Z,48.91
2023-04-30T18:41:53.637Z,50.1
2023-04-30T18:48:13.572Z,50.95
2023-04-30T18:54:36.556Z,52.17
2023-04-30T19:00:56.660Z,52.79
2023-04-30T19:07:19.571Z,55.01
2023-04-30T19:13:39.616Z,55.97
2023-04-30T19:20:02.599Z,57.08
2023-04-30T19:26:22.618Z,58.06
2023-04-30T19:32:45.643Z,58.58
2023-04-30T19:39:05.869Z,59.82
2023-04-30T19:45:28.573Z,60.85
2023-04-30T19:51:48.583Z,61.01
2023-04-30T20:08:16.524Z,62.5
2023-04-30T20:14:36.576Z,62.93
2023-04-30T20:20:59.637Z,64.1
2023-04-30T20:27:19.598Z,64.12
2023-04-30T20:33:42.592Z,64.08
2023-04-30T20:40:02.577Z,64.53
2023-04-30T20:46:25.611Z,64.6
2023-04-30T20:52:45.596Z,64.88
2023-04-30T20:59:08.571Z,65.17
2023-04-30T21:05:28.631Z,64.93
2023-04-30T21:11:51.600Z,65.32
2023-04-30T21:18:11.617Z,65.8
2023-04-30T21:24:34.625Z,65.61
2023-04-30T21:30:54.651Z,66.17
2023-04-30T21:37:17.627Z,65.88
2023-04-30T21:43:37.632Z,65.76
2023-04-30T21:50:00.612Z,66.55
2023-04-30T21:56:21.697Z,66
2023-04-30T22:20:37.587Z,67.21
2023-04-30T22:26:57.610Z,67.33
2023-04-30T22:33:22.025Z,67.49
2023-04-30T22:39:40.621Z,67.64
2023-04-30T22:46:03.608Z,67.82
2023-04-30T22:52:23.628Z,67.85
2023-04-30T22:58:46.592Z,67.84
2023-04-30T23:05:06.575Z,68.03
2023-04-30T23:11:29.577Z,68.23
2023-04-30T23:17:49.614Z,67.77
2023-04-30T23:24:12.572Z,67.84
2023-04-30T23:30:32.648Z,67.36
2023-04-30T23:36:55.600Z,67.34
2023-04-30T23:43:15.612Z,67.22
2023-04-30T23:49:38.575Z,67.73
2023-04-30T23:55:58.609Z,68.27
